»·PEaware :: WAT175 KPHX-KBUR

WAT175 :: KPHX-KBUR

FLIGHT INFORMATION

Flight Status: Arrived
Operator: Unknown
More flights by this operator :: More flights under this callsign
Pilot: Michael C. (27126)
Aircraft: BOEING 737-800
(B738)
More flights by this aircraft type
Origin: KPHX Phoenix Sky Harbor Intl
United States
Destination: KBUR Bob Hope-Burbank
United States
More flights between these airports :: More routes between these airports
Route: +ZEPER2 RRSTA EED JANNY5
File this flight plan on PilotEdge
Remarks: RMK / SIMBRIEF
Altitude:
(Current/Filed)
36,000ft
Speed:
(Current/Filed)
457kts
Departed: 30-Jul-20 05:39 PM
Arrived: 30-Jul-20 06:46 PM
Distance/Time
Traveled:
319nm/1:06
Distance/Time
To Go:
Arrived

Flight Plot

Page will automatically refresh every two minutes.


Map Options




Map Legend


Flown Route
Filed Route
Departure Airport
Arrival Airport
Navaid (VOR, NDB)
Fix

Horizontal Profiles

Position Reports

Time Latitude Longitude Heading Altitude Ground
Speed
30-Jul-20 17:10 33.437405 -112.008174 270 1119ft 0kts
30-Jul-20 17:11 33.437405 -112.008174 270 1119ft 0kts
30-Jul-20 17:12 33.437405 -112.008174 270 1119ft 0kts
30-Jul-20 17:13 33.437405 -112.008174 270 1119ft 0kts
30-Jul-20 17:14 33.437405 -112.008174 270 1119ft 0kts
30-Jul-20 17:15 33.437405 -112.008174 270 1119ft 0kts
30-Jul-20 17:16 33.437405 -112.008174 270 1119ft 0kts
30-Jul-20 17:17 33.437405 -112.008174 270 1119ft 0kts
30-Jul-20 17:18 33.437405 -112.008174 270 1119ft 0kts
30-Jul-20 17:19 33.437405 -112.008174 270 1119ft 0kts
30-Jul-20 17:20 33.437405 -112.008174 270 1119ft 0kts
30-Jul-20 17:21 33.437405 -112.008174 270 1119ft 0kts
30-Jul-20 17:22 33.437405 -112.008174 270 1119ft 0kts
30-Jul-20 17:23 33.437405 -112.008174 270 1119ft 0kts
30-Jul-20 17:24 33.437405 -112.008174 270 1119ft 0kts
30-Jul-20 17:24 33.437405 -112.008174 270 1119ft 0kts
30-Jul-20 17:26 33.437405 -112.008174 270 1119ft 0kts
30-Jul-20 17:27 33.437405 -112.008174 270 1119ft 0kts
30-Jul-20 17:27 33.437405 -112.008174 270 1119ft 0kts
30-Jul-20 17:28 33.437401 -112.008073 289 1119ft 2kts
30-Jul-20 17:30 33.437095 -112.007858 6 1119ft 0kts
30-Jul-20 17:30 33.437095 -112.007858 6 1119ft 0kts
30-Jul-20 17:31 33.437869 -112.007424 7 1119ft 0kts
30-Jul-20 17:32 33.437880 -112.007422 7 1119ft 1kts
30-Jul-20 17:33 33.439754 -112.005880 89 1119ft 15kts
30-Jul-20 17:34 33.439763 -111.999721 89 1119ft 18kts
30-Jul-20 17:35 33.439745 -111.994027 90 1119ft 16kts
30-Jul-20 17:36 33.439821 -111.991453 56 1119ft 0kts
30-Jul-20 17:37 33.440640 -111.991285 317 1119ft 10kts
30-Jul-20 17:38 33.440704 -112.023407 270 1472ft 184kts
30-Jul-20 17:39 33.441785 -112.086446 267 3604ft 226kts
30-Jul-20 17:40 33.451436 -112.166907 301 6424ft 256kts
30-Jul-20 17:41 33.517936 -112.197911 0 8028ft 275kts
30-Jul-20 17:42 33.599842 -112.202180 353 10006ft 304kts
30-Jul-20 17:43 33.692651 -112.225860 343 10703ft 380kts
30-Jul-20 17:44 33.797952 -112.259945 343 12856ft 394kts
30-Jul-20 17:45 33.905084 -112.294569 343 14939ft 404kts
30-Jul-20 17:46 34.014427 -112.333778 333 16874ft 412kts
30-Jul-20 17:47 34.108162 -112.415628 320 18635ft 421kts
30-Jul-20 17:48 34.201840 -112.511995 322 19797ft 446kts
30-Jul-20 17:49 34.299908 -112.609335 322 21275ft 457kts
30-Jul-20 17:50 34.400783 -112.706124 321 23154ft 454kts
30-Jul-20 17:51 34.498392 -112.803942 318 23202ft 450kts
30-Jul-20 17:52 34.594333 -112.904934 318 23752ft 456kts
30-Jul-20 17:53 34.692431 -113.008164 313 24968ft 465kts
30-Jul-20 17:54 34.750306 -113.148106 280 26113ft 472kts
30-Jul-20 17:55 34.755727 -113.307948 272 27550ft 472kts
30-Jul-20 17:56 34.758090 -113.467217 272 29239ft 466kts
30-Jul-20 17:57 34.760148 -113.624105 272 30940ft 460kts
30-Jul-20 17:58 34.761942 -113.779184 272 32575ft 454kts
30-Jul-20 17:59 34.763520 -113.932417 272 34099ft 449kts
30-Jul-20 18:00 34.764897 -114.083852 272 35467ft 444kts
30-Jul-20 18:01 34.766092 -114.234395 272 35842ft 441kts
30-Jul-20 18:02 34.767016 -114.383059 272 35845ft 440kts
30-Jul-20 18:03 34.768213 -114.532953 273 35853ft 442kts
30-Jul-20 18:04 34.771060 -114.683235 273 35853ft 441kts
30-Jul-20 18:05 34.774313 -114.833158 272 35844ft 439kts
30-Jul-20 18:06 34.777317 -114.981911 272 35844ft 440kts
30-Jul-20 18:07 34.779897 -115.130830 271 35844ft 438kts
30-Jul-20 18:08 34.782558 -115.278908 271 35844ft 439kts
30-Jul-20 18:09 34.785167 -115.427850 271 35844ft 438kts
30-Jul-20 18:10 34.787617 -115.576144 271 35933ft 438kts
30-Jul-20 18:11 34.789865 -115.723625 271 36023ft 422kts
30-Jul-20 18:12 34.791753 -115.861373 271 35565ft 409kts
30-Jul-20 18:13 34.794084 -116.002099 271 33248ft 420kts
30-Jul-20 18:14 34.796696 -116.146237 271 29843ft 432kts
30-Jul-20 18:15 34.796686 -116.294353 267 25931ft 445kts
30-Jul-20 18:16 34.791522 -116.443768 267 22670ft 433kts
30-Jul-20 18:17 34.784711 -116.585777 264 20879ft 388kts
30-Jul-20 18:18 34.772846 -116.708657 263 20885ft 375kts
30-Jul-20 18:19 34.760444 -116.835309 263 20885ft 373kts
30-Jul-20 18:20 34.747902 -116.960518 262 20908ft 366kts
30-Jul-20 18:21 34.735601 -117.081987 261 20961ft 356kts
30-Jul-20 18:22 34.723512 -117.200528 261 20992ft 351kts
30-Jul-20 18:23 34.711212 -117.319312 262 20993ft 355kts
30-Jul-20 18:24 34.699042 -117.436676 262 19532ft 358kts
30-Jul-20 18:25 34.686446 -117.553647 261 19072ft 344kts
30-Jul-20 18:26 34.674275 -117.667298 261 17690ft 334kts
30-Jul-20 18:27 34.662217 -117.780483 260 15609ft 338kts
30-Jul-20 18:28 34.650147 -117.893197 260 14061ft 323kts
30-Jul-20 18:29 34.638118 -118.003046 260 13236ft 325kts
30-Jul-20 18:30 34.621541 -118.109416 252 11733ft 304kts
30-Jul-20 18:31 34.599596 -118.207347 253 10169ft 268kts
30-Jul-20 18:32 34.580208 -118.294064 253 9059ft 272kts
30-Jul-20 18:33 34.543761 -118.371349 221 8065ft 262kts
30-Jul-20 18:34 34.491119 -118.433436 225 7462ft 267kts
30-Jul-20 18:35 34.435960 -118.496431 223 6018ft 278kts
30-Jul-20 18:36 34.382591 -118.561651 223 4996ft 242kts
30-Jul-20 18:37 34.337428 -118.616698 223 5031ft 222kts
30-Jul-20 18:38 34.295047 -118.662058 187 4975ft 202kts
30-Jul-20 18:39 34.268339 -118.610602 101 5003ft 182kts
30-Jul-20 18:40 34.261112 -118.551784 101 4996ft 175kts
30-Jul-20 18:41 34.256065 -118.491884 93 3798ft 186kts
30-Jul-20 18:42 34.254800 -118.433588 92 2416ft 164kts
30-Jul-20 18:43 34.238625 -118.389585 130 1452ft 142kts
30-Jul-20 18:44 34.213952 -118.360816 168 790ft 137kts
30-Jul-20 18:45 34.197655 -118.356430 167 740ft 15kts
30-Jul-20 18:46 34.197195 -118.353380 90 740ft 8kts
30-Jul-20 18:47 34.196823 -118.351981 173 740ft 0kts
30-Jul-20 18:48 34.196818 -118.351980 173 740ft 0kts

Navigation Log

Ident Type
Flight plan parsing failed, navigation log unavailable